KCNY/CNY METAR and TAF weather

Enter ICAO airport designator
Station Type Date Time Source
KCNY METAR 2019/02/23 16:53 UTC NOAA

KCNY 231653Z AUTO 00000KT 10SM CLR M05/M11 A3015 RMK AO2 SLP250 T10501106


Station Type Date Time Source
KCNY Decoded METAR 2019/02/23 16:53 UTC NOAA

MOAB CANYONLANDS FIELD, UT, United States (KCNY) 38-46N 109-45W 1390M
Feb 23, 2019 - 11:53 AM EST / 2019.02.23 1653 UTC
Wind: Calm:0
Visibility: 10 mile(s):0
Sky conditions: clear
Temperature: 23.0 F (-5.0 C)
Dew Point: 12.9 F (-10.6 C)
Relative Humidity: 64%
Pressure (altimeter): 30.15 in. Hg (1020 hPa)
ob: KCNY 231653Z AUTO 00000KT 10SM CLR M05/M11 A3015 RMK AO2 SLP250 T10501106
cycle: 17

Station Type Date Time Source
KCNY TAF 2019/02/23 12:33 UTC NOAA

TAF KCNY 231131Z 2312/2412 00000KT P6SM FEW250
FM231500 VRB03KT P6SM SKC
FM240900 VRB04KT P6SM FEW080 SCT250


Example: see airport list